sensor_id;sensor_type;location;lat;lon;timestamp;temperature;humidity
19952;DHT22;10137;49.406;19.484;2022-07-29T00:01:19;15.90;99.90
19952;DHT22;10137;49.406;19.484;2022-07-29T00:03:46;15.80;99.90
19952;DHT22;10137;49.406;19.484;2022-07-29T00:06:13;15.80;99.90
19952;DHT22;10137;49.406;19.484;2022-07-29T00:08:40;15.60;99.90
19952;DHT22;10137;49.406;19.484;2022-07-29T00:11:08;15.50;99.90
19952;DHT22;10137;49.406;19.484;2022-07-29T00:13:35;15.50;99.90
19952;DHT22;10137;49.406;19.484;2022-07-29T00:16:03;15.50;99.90
19952;DHT22;10137;49.406;19.484;2022-07-29T00:18:30;15.40;99.90
19952;DHT22;10137;49.406;19.484;2022-07-29T00:20:58;15.50;99.90
19952;DHT22;10137;49.406;19.484;2022-07-29T00:23:25;15.60;99.90
19952;DHT22;10137;49.406;19.484;2022-07-29T00:25:51;15.60;99.90
19952;DHT22;10137;49.406;19.484;2022-07-29T00:28:18;15.60;99.90
19952;DHT22;10137;49.406;19.484;2022-07-29T00:30:45;15.60;99.90
19952;DHT22;10137;49.406;19.484;2022-07-29T00:33:14;15.50;99.90
19952;DHT22;10137;49.406;19.484;2022-07-29T00:35:41;15.40;99.90
19952;DHT22;10137;49.406;19.484;2022-07-29T00:38:10;15.40;99.90
19952;DHT22;10137;49.406;19.484;2022-07-29T00:40:37;15.40;99.90
19952;DHT22;10137;49.406;19.484;2022-07-29T00:43:04;15.40;99.90
19952;DHT22;10137;49.406;19.484;2022-07-29T00:45:31;15.40;99.90
19952;DHT22;10137;49.406;19.484;2022-07-29T00:47:58;15.50;99.90
19952;DHT22;10137;49.406;19.484;2022-07-29T00:50:26;15.40;99.90
19952;DHT22;10137;49.406;19.484;2022-07-29T00:52:54;15.20;99.90
19952;DHT22;10137;49.406;19.484;2022-07-29T00:55:21;15.10;99.90
19952;DHT22;10137;49.406;19.484;2022-07-29T00:57:48;15.00;99.90
19952;DHT22;10137;49.406;19.484;2022-07-29T01:00:17;14.90;99.90
19952;DHT22;10137;49.406;19.484;2022-07-29T01:02:44;15.10;99.90
19952;DHT22;10137;49.406;19.484;2022-07-29T01:05:15;15.10;99.90
19952;DHT22;10137;49.406;19.484;2022-07-29T01:07:45;15.00;99.90
19952;DHT22;10137;49.406;19.484;2022-07-29T01:10:13;15.00;99.90
19952;DHT22;10137;49.406;19.484;2022-07-29T01:12:44;15.00;99.90
19952;DHT22;10137;49.406;19.484;2022-07-29T01:15:11;14.70;99.90
19952;DHT22;10137;49.406;19.484;2022-07-29T01:17:42;14.80;99.90
19952;DHT22;10137;49.406;19.484;2022-07-29T01:20:13;14.70;99.90
19952;DHT22;10137;49.406;19.484;2022-07-29T01:23:08;14.50;99.90
19952;DHT22;10137;49.406;19.484;2022-07-29T01:26:01;14.50;99.90
19952;DHT22;10137;49.406;19.484;2022-07-29T01:31:44;14.70;99.90
19952;DHT22;10137;49.406;19.484;2022-07-29T01:34:18;14.60;99.90
19952;DHT22;10137;49.406;19.484;2022-07-29T01:36:50;14.40;99.90
19952;DHT22;10137;49.406;19.484;2022-07-29T01:39:26;14.50;99.90
19952;DHT22;10137;49.406;19.484;2022-07-29T01:41:59;14.40;99.90
19952;DHT22;10137;49.406;19.484;2022-07-29T01:44:31;14.50;99.90
19952;DHT22;10137;49.406;19.484;2022-07-29T01:47:05;14.50;99.90
19952;DHT22;10137;49.406;19.484;2022-07-29T01:49:36;14.50;99.90
19952;DHT22;10137;49.406;19.484;2022-07-29T01:52:13;14.50;99.90
19952;DHT22;10137;49.406;19.484;2022-07-29T01:54:42;14.40;99.90
19952;DHT22;10137;49.406;19.484;2022-07-29T01:57:14;14.40;99.90
19952;DHT22;10137;49.406;19.484;2022-07-29T01:59:43;14.40;99.90
19952;DHT22;10137;49.406;19.484;2022-07-29T02:02:14;14.20;99.90
19952;DHT22;10137;49.406;19.484;2022-07-29T02:04:43;14.20;99.90
19952;DHT22;10137;49.406;19.484;2022-07-29T02:07:17;14.30;99.90
19952;DHT22;10137;49.406;19.484;2022-07-29T02:09:45;14.30;99.90
19952;DHT22;10137;49.406;19.484;2022-07-29T02:12:14;14.20;99.90
19952;DHT22;10137;49.406;19.484;2022-07-29T02:14:45;14.20;99.90
19952;DHT22;10137;49.406;19.484;2022-07-29T02:17:21;14.10;99.90
19952;DHT22;10137;49.406;19.484;2022-07-29T02:19:49;14.10;99.90
19952;DHT22;10137;49.406;19.484;2022-07-29T02:22:18;14.20;99.90
19952;DHT22;10137;49.406;19.484;2022-07-29T02:24:46;14.20;99.90
19952;DHT22;10137;49.406;19.484;2022-07-29T02:27:15;14.30;99.90
19952;DHT22;10137;49.406;19.484;2022-07-29T02:29:43;14.30;99.90
19952;DHT22;10137;49.406;19.484;2022-07-29T02:32:14;14.00;99.90
19952;DHT22;10137;49.406;19.484;2022-07-29T02:34:43;13.90;99.90
19952;DHT22;10137;49.406;19.484;2022-07-29T02:37:11;14.00;99.90
19952;DHT22;10137;49.406;19.484;2022-07-29T02:39:41;14.00;99.90
19952;DHT22;10137;49.406;19.484;2022-07-29T02:42:13;14.00;99.90
19952;DHT22;10137;49.406;19.484;2022-07-29T02:44:41;14.00;99.90
19952;DHT22;10137;49.406;19.484;2022-07-29T02:47:16;14.00;99.90
19952;DHT22;10137;49.406;19.484;2022-07-29T02:49:50;14.00;99.90
19952;DHT22;10137;49.406;19.484;2022-07-29T02:52:21;14.00;99.90
19952;DHT22;10137;49.406;19.484;2022-07-29T02:54:53;14.00;99.90
19952;DHT22;10137;49.406;19.484;2022-07-29T02:57:27;13.90;99.90
19952;DHT22;10137;49.406;19.484;2022-07-29T02:59:57;13.90;99.90
19952;DHT22;10137;49.406;19.484;2022-07-29T03:02:27;14.00;99.90
19952;DHT22;10137;49.406;19.484;2022-07-29T03:04:56;14.00;99.90
19952;DHT22;10137;49.406;19.484;2022-07-29T03:07:24;14.10;99.90
19952;DHT22;10137;49.406;19.484;2022-07-29T03:09:52;14.10;99.90
19952;DHT22;10137;49.406;19.484;2022-07-29T03:12:19;14.00;99.90
19952;DHT22;10137;49.406;19.484;2022-07-29T03:14:47;13.90;99.90
19952;DHT22;10137;49.406;19.484;2022-07-29T03:17:15;13.90;99.90
19952;DHT22;10137;49.406;19.484;2022-07-29T03:19:44;13.90;99.90
19952;DHT22;10137;49.406;19.484;2022-07-29T03:22:12;13.80;99.90
19952;DHT22;10137;49.406;19.484;2022-07-29T03:24:38;13.80;99.90
19952;DHT22;10137;49.406;19.484;2022-07-29T03:27:06;13.80;99.90
19952;DHT22;10137;49.406;19.484;2022-07-29T03:29:33;13.80;99.90
19952;DHT22;10137;49.406;19.484;2022-07-29T03:32:01;13.80;99.90
19952;DHT22;10137;49.406;19.484;2022-07-29T03:34:28;13.90;99.90
19952;DHT22;10137;49.406;19.484;2022-07-29T03:36:57;13.90;99.90
19952;DHT22;10137;49.406;19.484;2022-07-29T03:39:27;14.00;99.90
19952;DHT22;10137;49.406;19.484;2022-07-29T03:41:56;14.00;99.90
19952;DHT22;10137;49.406;19.484;2022-07-29T03:44:25;14.00;99.90
19952;DHT22;10137;49.406;19.484;2022-07-29T03:46:54;14.00;99.90
19952;DHT22;10137;49.406;19.484;2022-07-29T03:49:23;13.90;99.90
19952;DHT22;10137;49.406;19.484;2022-07-29T03:51:51;14.00;99.90
19952;DHT22;10137;49.406;19.484;2022-07-29T03:54:19;13.90;99.90
19952;DHT22;10137;49.406;19.484;2022-07-29T03:56:48;13.90;99.90
19952;DHT22;10137;49.406;19.484;2022-07-29T03:59:17;13.90;99.90
19952;DHT22;10137;49.406;19.484;2022-07-29T04:01:46;13.90;99.90
19952;DHT22;10137;49.406;19.484;2022-07-29T04:04:14;13.90;99.90
19952;DHT22;10137;49.406;19.484;2022-07-29T04:06:43;14.00;99.90
19952;DHT22;10137;49.406;19.484;2022-07-29T04:09:11;13.90;99.90
19952;DHT22;10137;49.406;19.484;2022-07-29T04:11:40;13.70;99.90
19952;DHT22;10137;49.406;19.484;2022-07-29T04:14:07;13.70;99.90
19952;DHT22;10137;49.406;19.484;2022-07-29T04:16:34;13.80;99.90
19952;DHT22;10137;49.406;19.484;2022-07-29T04:19:01;13.80;99.90
19952;DHT22;10137;49.406;19.484;2022-07-29T04:21:28;13.80;99.90
19952;DHT22;10137;49.406;19.484;2022-07-29T04:23:55;13.90;99.90
19952;DHT22;10137;49.406;19.484;2022-07-29T04:26:22;14.00;99.90
19952;DHT22;10137;49.406;19.484;2022-07-29T04:28:51;13.90;99.90
19952;DHT22;10137;49.406;19.484;2022-07-29T04:31:17;13.90;99.90
19952;DHT22;10137;49.406;19.484;2022-07-29T04:33:45;14.00;99.90
19952;DHT22;10137;49.406;19.484;2022-07-29T04:36:12;14.10;99.90
19952;DHT22;10137;49.406;19.484;2022-07-29T04:38:39;14.10;99.90
19952;DHT22;10137;49.406;19.484;2022-07-29T04:41:06;14.30;99.90
19952;DHT22;10137;49.406;19.484;2022-07-29T04:43:34;14.30;99.90
19952;DHT22;10137;49.406;19.484;2022-07-29T04:46:02;14.30;99.90
19952;DHT22;10137;49.406;19.484;2022-07-29T04:48:29;14.40;99.90
19952;DHT22;10137;49.406;19.484;2022-07-29T04:50:56;14.50;99.90
19952;DHT22;10137;49.406;19.484;2022-07-29T04:53:23;14.50;99.90
19952;DHT22;10137;49.406;19.484;2022-07-29T04:55:50;14.60;99.90
19952;DHT22;10137;49.406;19.484;2022-07-29T04:58:17;14.60;99.90
19952;DHT22;10137;49.406;19.484;2022-07-29T05:00:45;14.70;99.90
19952;DHT22;10137;49.406;19.484;2022-07-29T05:03:13;14.70;99.90
19952;DHT22;10137;49.406;19.484;2022-07-29T05:05:40;14.80;99.90
19952;DHT22;10137;49.406;19.484;2022-07-29T05:08:08;15.00;99.90
19952;DHT22;10137;49.406;19.484;2022-07-29T05:10:35;15.10;99.90
19952;DHT22;10137;49.406;19.484;2022-07-29T05:13:04;15.20;99.90
19952;DHT22;10137;49.406;19.484;2022-07-29T05:15:32;15.30;99.90
19952;DHT22;10137;49.406;19.484;2022-07-29T05:17:59;15.50;99.90
19952;DHT22;10137;49.406;19.484;2022-07-29T05:20:27;15.70;99.90
19952;DHT22;10137;49.406;19.484;2022-07-29T05:22:55;15.90;99.90
19952;DHT22;10137;49.406;19.484;2022-07-29T05:25:23;16.10;99.90
19952;DHT22;10137;49.406;19.484;2022-07-29T05:27:50;16.30;99.90
19952;DHT22;10137;49.406;19.484;2022-07-29T05:30:18;16.60;99.90
19952;DHT22;10137;49.406;19.484;2022-07-29T05:32:45;16.90;99.90
19952;DHT22;10137;49.406;19.484;2022-07-29T05:35:13;17.10;99.90
19952;DHT22;10137;49.406;19.484;2022-07-29T05:37:42;17.30;99.90
19952;DHT22;10137;49.406;19.484;2022-07-29T05:40:10;17.60;99.90
19952;DHT22;10137;49.406;19.484;2022-07-29T05:42:37;17.70;99.90
19952;DHT22;10137;49.406;19.484;2022-07-29T05:45:05;17.90;99.90
19952;DHT22;10137;49.406;19.484;2022-07-29T05:47:32;18.10;99.90
19952;DHT22;10137;49.406;19.484;2022-07-29T05:49:59;18.30;99.90
19952;DHT22;10137;49.406;19.484;2022-07-29T05:52:26;18.40;99.90
19952;DHT22;10137;49.406;19.484;2022-07-29T05:54:55;18.60;99.90
19952;DHT22;10137;49.406;19.484;2022-07-29T05:57:24;18.70;99.90
19952;DHT22;10137;49.406;19.484;2022-07-29T05:59:51;18.90;99.90
19952;DHT22;10137;49.406;19.484;2022-07-29T06:02:18;19.00;99.90
19952;DHT22;10137;49.406;19.484;2022-07-29T06:04:45;19.20;99.90
19952;DHT22;10137;49.406;19.484;2022-07-29T06:07:13;19.50;99.90
19952;DHT22;10137;49.406;19.484;2022-07-29T06:09:40;19.40;99.90
19952;DHT22;10137;49.406;19.484;2022-07-29T06:12:08;19.50;99.90
19952;DHT22;10137;49.406;19.484;2022-07-29T06:14:36;19.60;99.90
19952;DHT22;10137;49.406;19.484;2022-07-29T06:17:03;19.80;99.90
19952;DHT22;10137;49.406;19.484;2022-07-29T06:19:31;19.90;99.90
19952;DHT22;10137;49.406;19.484;2022-07-29T06:22:00;19.90;99.90
19952;DHT22;10137;49.406;19.484;2022-07-29T06:24:27;20.00;99.90
19952;DHT22;10137;49.406;19.484;2022-07-29T06:26:54;20.00;99.90
19952;DHT22;10137;49.406;19.484;2022-07-29T06:29:23;20.10;99.90
19952;DHT22;10137;49.406;19.484;2022-07-29T06:31:50;20.10;99.90
19952;DHT22;10137;49.406;19.484;2022-07-29T06:34:17;20.20;99.90
19952;DHT22;10137;49.406;19.484;2022-07-29T06:36:44;20.30;99.90
19952;DHT22;10137;49.406;19.484;2022-07-29T06:39:12;20.30;99.90
19952;DHT22;10137;49.406;19.484;2022-07-29T06:41:39;20.40;99.90
19952;DHT22;10137;49.406;19.484;2022-07-29T06:44:06;20.50;99.90
19952;DHT22;10137;49.406;19.484;2022-07-29T06:46:34;20.50;99.90
19952;DHT22;10137;49.406;19.484;2022-07-29T06:49:02;20.60;99.90
19952;DHT22;10137;49.406;19.484;2022-07-29T06:51:30;20.80;99.90
19952;DHT22;10137;49.406;19.484;2022-07-29T06:53:57;20.90;99.90
19952;DHT22;10137;49.406;19.484;2022-07-29T06:56:24;21.00;99.90
19952;DHT22;10137;49.406;19.484;2022-07-29T06:58:51;21.10;99.90
19952;DHT22;10137;49.406;19.484;2022-07-29T07:01:18;21.10;99.90
19952;DHT22;10137;49.406;19.484;2022-07-29T07:03:47;21.10;99.90
19952;DHT22;10137;49.406;19.484;2022-07-29T07:06:14;21.30;99.90
19952;DHT22;10137;49.406;19.484;2022-07-29T07:08:41;21.30;99.90
19952;DHT22;10137;49.406;19.484;2022-07-29T07:11:09;21.40;99.90
19952;DHT22;10137;49.406;19.484;2022-07-29T07:13:37;21.50;99.90
19952;DHT22;10137;49.406;19.484;2022-07-29T07:16:04;21.50;99.90
19952;DHT22;10137;49.406;19.484;2022-07-29T07:18:31;21.60;99.90
19952;DHT22;10137;49.406;19.484;2022-07-29T07:21:00;21.80;99.90
19952;DHT22;10137;49.406;19.484;2022-07-29T07:23:27;21.90;99.90
19952;DHT22;10137;49.406;19.484;2022-07-29T07:25:54;22.10;99.90
19952;DHT22;10137;49.406;19.484;2022-07-29T07:28:21;22.20;99.90
19952;DHT22;10137;49.406;19.484;2022-07-29T07:30:48;22.40;99.90
19952;DHT22;10137;49.406;19.484;2022-07-29T07:33:15;22.50;99.90
19952;DHT22;10137;49.406;19.484;2022-07-29T07:35:42;22.60;99.90
19952;DHT22;10137;49.406;19.484;2022-07-29T07:38:11;22.90;99.90
19952;DHT22;10137;49.406;19.484;2022-07-29T07:40:40;23.00;99.90
19952;DHT22;10137;49.406;19.484;2022-07-29T07:43:07;23.10;99.90
19952;DHT22;10137;49.406;19.484;2022-07-29T07:45:34;23.10;99.90
19952;DHT22;10137;49.406;19.484;2022-07-29T07:48:03;23.30;99.90
19952;DHT22;10137;49.406;19.484;2022-07-29T07:50:29;23.40;99.90
19952;DHT22;10137;49.406;19.484;2022-07-29T07:52:56;23.50;99.90
19952;DHT22;10137;49.406;19.484;2022-07-29T07:55:25;23.50;99.90
19952;DHT22;10137;49.406;19.484;2022-07-29T07:57:55;23.50;99.90
19952;DHT22;10137;49.406;19.484;2022-07-29T08:00:22;23.70;99.90
19952;DHT22;10137;49.406;19.484;2022-07-29T08:02:50;23.70;99.90
19952;DHT22;10137;49.406;19.484;2022-07-29T08:05:17;24.00;99.90
19952;DHT22;10137;49.406;19.484;2022-07-29T08:07:45;24.20;99.90
19952;DHT22;10137;49.406;19.484;2022-07-29T08:10:13;24.20;99.90
19952;DHT22;10137;49.406;19.484;2022-07-29T08:12:41;24.30;99.90
19952;DHT22;10137;49.406;19.484;2022-07-29T08:15:09;24.30;99.90
19952;DHT22;10137;49.406;19.484;2022-07-29T08:17:37;24.50;99.90
19952;DHT22;10137;49.406;19.484;2022-07-29T08:20:05;24.60;99.90
19952;DHT22;10137;49.406;19.484;2022-07-29T08:22:32;24.80;99.90
19952;DHT22;10137;49.406;19.484;2022-07-29T08:24:59;24.80;99.90
19952;DHT22;10137;49.406;19.484;2022-07-29T08:27:26;24.90;99.90
19952;DHT22;10137;49.406;19.484;2022-07-29T08:29:56;25.20;99.90
19952;DHT22;10137;49.406;19.484;2022-07-29T08:32:24;25.30;99.90
19952;DHT22;10137;49.406;19.484;2022-07-29T08:34:51;25.50;99.90
19952;DHT22;10137;49.406;19.484;2022-07-29T08:37:18;25.70;99.90
19952;DHT22;10137;49.406;19.484;2022-07-29T08:39:46;25.80;99.90
19952;DHT22;10137;49.406;19.484;2022-07-29T08:42:13;25.90;99.90
19952;DHT22;10137;49.406;19.484;2022-07-29T08:44:40;25.90;99.90
19952;DHT22;10137;49.406;19.484;2022-07-29T08:47:09;26.00;99.90
19952;DHT22;10137;49.406;19.484;2022-07-29T08:49:37;26.20;99.90
19952;DHT22;10137;49.406;19.484;2022-07-29T08:52:04;26.10;99.90
19952;DHT22;10137;49.406;19.484;2022-07-29T08:54:32;26.10;99.90
19952;DHT22;10137;49.406;19.484;2022-07-29T08:57:00;26.20;99.90
19952;DHT22;10137;49.406;19.484;2022-07-29T08:59:30;26.20;99.90
19952;DHT22;10137;49.406;19.484;2022-07-29T09:02:01;26.20;99.90
19952;DHT22;10137;49.406;19.484;2022-07-29T09:04:34;26.10;99.90
19952;DHT22;10137;49.406;19.484;2022-07-29T09:07:05;26.10;99.90
19952;DHT22;10137;49.406;19.484;2022-07-29T09:09:33;26.00;99.90
19952;DHT22;10137;49.406;19.484;2022-07-29T09:12:01;25.90;99.90
19952;DHT22;10137;49.406;19.484;2022-07-29T09:14:29;25.80;99.90
19952;DHT22;10137;49.406;19.484;2022-07-29T09:16:56;25.70;99.90
19952;DHT22;10137;49.406;19.484;2022-07-29T09:19:26;25.60;99.90
19952;DHT22;10137;49.406;19.484;2022-07-29T09:21:56;25.50;99.90
19952;DHT22;10137;49.406;19.484;2022-07-29T09:24:26;25.40;99.90
19952;DHT22;10137;49.406;19.484;2022-07-29T09:26:54;25.30;99.90
19952;DHT22;10137;49.406;19.484;2022-07-29T09:29:22;25.20;99.90
19952;DHT22;10137;49.406;19.484;2022-07-29T09:31:51;25.20;99.90
19952;DHT22;10137;49.406;19.484;2022-07-29T09:34:24;25.20;99.90
19952;DHT22;10137;49.406;19.484;2022-07-29T09:36:54;25.30;99.90
19952;DHT22;10137;49.406;19.484;2022-07-29T09:39:29;25.30;99.90
19952;DHT22;10137;49.406;19.484;2022-07-29T09:41:58;25.50;99.90
19952;DHT22;10137;49.406;19.484;2022-07-29T09:44:25;25.50;99.90
19952;DHT22;10137;49.406;19.484;2022-07-29T09:46:58;25.60;99.90
19952;DHT22;10137;49.406;19.484;2022-07-29T09:49:31;25.70;99.90
19952;DHT22;10137;49.406;19.484;2022-07-29T09:52:07;25.80;99.90
19952;DHT22;10137;49.406;19.484;2022-07-29T09:54:35;25.90;99.90
19952;DHT22;10137;49.406;19.484;2022-07-29T09:57:06;25.80;99.90
19952;DHT22;10137;49.406;19.484;2022-07-29T09:59:35;25.80;99.90
19952;DHT22;10137;49.406;19.484;2022-07-29T10:02:11;25.90;99.90
19952;DHT22;10137;49.406;19.484;2022-07-29T10:04:39;26.10;99.90
19952;DHT22;10137;49.406;19.484;2022-07-29T10:07:09;26.30;99.90
19952;DHT22;10137;49.406;19.484;2022-07-29T10:09:39;26.50;99.90
19952;DHT22;10137;49.406;19.484;2022-07-29T10:12:08;26.80;99.90
19952;DHT22;10137;49.406;19.484;2022-07-29T10:14:37;26.90;99.90
19952;DHT22;10137;49.406;19.484;2022-07-29T10:17:05;26.80;99.90
19952;DHT22;10137;49.406;19.484;2022-07-29T10:19:34;26.90;99.90
19952;DHT22;10137;49.406;19.484;2022-07-29T10:22:08;26.90;99.90
19952;DHT22;10137;49.406;19.484;2022-07-29T10:24:37;26.90;99.90
19952;DHT22;10137;49.406;19.484;2022-07-29T10:27:07;26.90;99.90
19952;DHT22;10137;49.406;19.484;2022-07-29T10:29:38;26.90;99.90
19952;DHT22;10137;49.406;19.484;2022-07-29T10:32:33;26.70;99.90
19952;DHT22;10137;49.406;19.484;2022-07-29T10:35:19;26.50;99.90
19952;DHT22;10137;49.406;19.484;2022-07-29T10:38:21;26.40;99.90
19952;DHT22;10137;49.406;19.484;2022-07-29T10:41:05;26.30;99.90
19952;DHT22;10137;49.406;19.484;2022-07-29T10:43:51;26.20;99.90
19952;DHT22;10137;49.406;19.484;2022-07-29T10:46:20;26.00;99.90
19952;DHT22;10137;49.406;19.484;2022-07-29T10:49:06;26.20;99.90
19952;DHT22;10137;49.406;19.484;2022-07-29T10:51:54;26.30;99.90
19952;DHT22;10137;49.406;19.484;2022-07-29T10:54:46;26.40;99.90
19952;DHT22;10137;49.406;19.484;2022-07-29T10:57:21;26.50;99.90
19952;DHT22;10137;49.406;19.484;2022-07-29T11:02:52;26.70;99.90
19952;DHT22;10137;49.406;19.484;2022-07-29T11:05:22;26.70;99.90
19952;DHT22;10137;49.406;19.484;2022-07-29T11:08:22;26.60;99.90
19952;DHT22;10137;49.406;19.484;2022-07-29T11:14:06;26.50;99.90
19952;DHT22;10137;49.406;19.484;2022-07-29T11:16:59;26.40;99.90
19952;DHT22;10137;49.406;19.484;2022-07-29T11:19:30;26.40;99.90
19952;DHT22;10137;49.406;19.484;2022-07-29T11:21:57;26.50;99.90
19952;DHT22;10137;49.406;19.484;2022-07-29T11:24:27;26.60;99.90
19952;DHT22;10137;49.406;19.484;2022-07-29T11:27:16;26.50;99.90
19952;DHT22;10137;49.406;19.484;2022-07-29T11:29:52;26.50;99.90
19952;DHT22;10137;49.406;19.484;2022-07-29T11:32:22;26.40;99.90
19952;DHT22;10137;49.406;19.484;2022-07-29T11:35:13;26.40;99.90
19952;DHT22;10137;49.406;19.484;2022-07-29T11:37:41;26.30;99.90
19952;DHT22;10137;49.406;19.484;2022-07-29T11:40:15;26.30;99.90
19952;DHT22;10137;49.406;19.484;2022-07-29T11:42:52;26.30;99.90
19952;DHT22;10137;49.406;19.484;2022-07-29T11:45:25;26.20;99.90
19952;DHT22;10137;49.406;19.484;2022-07-29T11:47:59;26.30;99.90
19952;DHT22;10137;49.406;19.484;2022-07-29T11:50:34;26.30;99.90
19952;DHT22;10137;49.406;19.484;2022-07-29T11:53:03;26.40;99.90
19952;DHT22;10137;49.406;19.484;2022-07-29T11:55:37;26.40;99.90
19952;DHT22;10137;49.406;19.484;2022-07-29T11:58:08;26.30;99.90
19952;DHT22;10137;49.406;19.484;2022-07-29T12:00:40;26.30;99.90
19952;DHT22;10137;49.406;19.484;2022-07-29T12:03:10;26.30;99.90
19952;DHT22;10137;49.406;19.484;2022-07-29T12:05:42;26.30;99.90
19952;DHT22;10137;49.406;19.484;2022-07-29T12:08:13;26.30;99.90
19952;DHT22;10137;49.406;19.484;2022-07-29T12:10:47;26.30;99.90
19952;DHT22;10137;49.406;19.484;2022-07-29T12:13:20;26.20;99.90
19952;DHT22;10137;49.406;19.484;2022-07-29T12:15:55;26.20;99.90
19952;DHT22;10137;49.406;19.484;2022-07-29T12:18:25;26.30;99.90
19952;DHT22;10137;49.406;19.484;2022-07-29T12:20:59;26.20;99.90
19952;DHT22;10137;49.406;19.484;2022-07-29T12:23:30;26.20;99.90
19952;DHT22;10137;49.406;19.484;2022-07-29T12:25:59;26.20;99.90
19952;DHT22;10137;49.406;19.484;2022-07-29T12:28:36;26.20;99.90
19952;DHT22;10137;49.406;19.484;2022-07-29T12:31:05;26.20;99.90
19952;DHT22;10137;49.406;19.484;2022-07-29T12:33:34;26.10;99.90
19952;DHT22;10137;49.406;19.484;2022-07-29T12:36:02;26.10;99.90
19952;DHT22;10137;49.406;19.484;2022-07-29T12:38:30;26.10;99.90
19952;DHT22;10137;49.406;19.484;2022-07-29T12:40:58;26.20;99.90
19952;DHT22;10137;49.406;19.484;2022-07-29T12:43:26;26.20;99.90
19952;DHT22;10137;49.406;19.484;2022-07-29T12:45:56;26.20;99.90
19952;DHT22;10137;49.406;19.484;2022-07-29T12:48:34;26.30;99.90
19952;DHT22;10137;49.406;19.484;2022-07-29T12:51:04;26.20;99.90
19952;DHT22;10137;49.406;19.484;2022-07-29T12:53:31;26.20;99.90
19952;DHT22;10137;49.406;19.484;2022-07-29T12:56:00;26.30;99.90
19952;DHT22;10137;49.406;19.484;2022-07-29T12:58:32;26.40;99.90
19952;DHT22;10137;49.406;19.484;2022-07-29T13:01:08;26.40;99.90
19952;DHT22;10137;49.406;19.484;2022-07-29T13:03:50;26.50;99.90
19952;DHT22;10137;49.406;19.484;2022-07-29T13:06:38;26.50;96.60
19952;DHT22;10137;49.406;19.484;2022-07-29T13:09:08;26.60;99.90
19952;DHT22;10137;49.406;19.484;2022-07-29T13:11:38;26.70;99.90
19952;DHT22;10137;49.406;19.484;2022-07-29T13:14:07;26.70;99.90
19952;DHT22;10137;49.406;19.484;2022-07-29T13:16:40;26.70;99.90
19952;DHT22;10137;49.406;19.484;2022-07-29T13:19:33;26.70;99.90
19952;DHT22;10137;49.406;19.484;2022-07-29T13:22:01;26.80;99.90
19952;DHT22;10137;49.406;19.484;2022-07-29T13:24:30;26.90;99.90
19952;DHT22;10137;49.406;19.484;2022-07-29T13:26:58;27.00;99.90
19952;DHT22;10137;49.406;19.484;2022-07-29T13:29:26;27.00;98.10
19952;DHT22;10137;49.406;19.484;2022-07-29T13:31:54;27.00;97.50
19952;DHT22;10137;49.406;19.484;2022-07-29T13:34:22;26.90;99.90
19952;DHT22;10137;49.406;19.484;2022-07-29T13:36:49;26.90;99.90
19952;DHT22;10137;49.406;19.484;2022-07-29T13:39:16;26.90;99.90
19952;DHT22;10137;49.406;19.484;2022-07-29T13:41:44;26.80;99.90
19952;DHT22;10137;49.406;19.484;2022-07-29T13:44:12;26.80;99.80
19952;DHT22;10137;49.406;19.484;2022-07-29T13:46:39;26.70;99.90
19952;DHT22;10137;49.406;19.484;2022-07-29T13:49:07;26.60;94.80
19952;DHT22;10137;49.406;19.484;2022-07-29T13:51:39;26.50;98.00
19952;DHT22;10137;49.406;19.484;2022-07-29T13:54:06;26.30;96.80
19952;DHT22;10137;49.406;19.484;2022-07-29T13:56:33;26.00;93.90
19952;DHT22;10137;49.406;19.484;2022-07-29T13:59:00;25.80;95.20
19952;DHT22;10137;49.406;19.484;2022-07-29T14:01:28;25.60;94.90
19952;DHT22;10137;49.406;19.484;2022-07-29T14:03:55;25.40;93.40
19952;DHT22;10137;49.406;19.484;2022-07-29T14:06:24;25.10;96.30
19952;DHT22;10137;49.406;19.484;2022-07-29T14:08:52;24.90;99.60
19952;DHT22;10137;49.406;19.484;2022-07-29T14:11:19;24.80;99.40
19952;DHT22;10137;49.406;19.484;2022-07-29T14:13:46;24.60;99.90
19952;DHT22;10137;49.406;19.484;2022-07-29T14:16:13;24.50;99.90
19952;DHT22;10137;49.406;19.484;2022-07-29T14:18:40;24.40;99.90
19952;DHT22;10137;49.406;19.484;2022-07-29T14:21:08;24.20;99.90
19952;DHT22;10137;49.406;19.484;2022-07-29T14:23:41;24.00;99.90
19952;DHT22;10137;49.406;19.484;2022-07-29T14:26:08;23.90;99.90
19952;DHT22;10137;49.406;19.484;2022-07-29T14:28:35;24.00;99.90
19952;DHT22;10137;49.406;19.484;2022-07-29T14:31:03;24.00;99.90
19952;DHT22;10137;49.406;19.484;2022-07-29T14:33:30;23.60;99.90
19952;DHT22;10137;49.406;19.484;2022-07-29T14:35:57;23.40;99.90
19952;DHT22;10137;49.406;19.484;2022-07-29T14:38:24;23.40;99.90
19952;DHT22;10137;49.406;19.484;2022-07-29T14:40:52;23.40;99.90
19952;DHT22;10137;49.406;19.484;2022-07-29T14:43:20;23.20;99.90
19952;DHT22;10137;49.406;19.484;2022-07-29T14:45:48;23.10;99.90
19952;DHT22;10137;49.406;19.484;2022-07-29T14:48:16;23.10;99.90
19952;DHT22;10137;49.406;19.484;2022-07-29T14:50:44;23.20;99.90
19952;DHT22;10137;49.406;19.484;2022-07-29T14:53:13;23.10;99.90
19952;DHT22;10137;49.406;19.484;2022-07-29T14:55:41;23.10;99.90
19952;DHT22;10137;49.406;19.484;2022-07-29T14:58:09;22.90;99.90
19952;DHT22;10137;49.406;19.484;2022-07-29T15:00:36;22.80;99.90
19952;DHT22;10137;49.406;19.484;2022-07-29T15:03:04;22.70;99.90
19952;DHT22;10137;49.406;19.484;2022-07-29T15:05:31;22.70;99.90
19952;DHT22;10137;49.406;19.484;2022-07-29T15:07:59;22.60;99.90
19952;DHT22;10137;49.406;19.484;2022-07-29T15:10:26;22.60;99.90
19952;DHT22;10137;49.406;19.484;2022-07-29T15:12:53;22.60;99.90
19952;DHT22;10137;49.406;19.484;2022-07-29T15:15:22;22.50;99.90
19952;DHT22;10137;49.406;19.484;2022-07-29T15:17:49;22.50;99.90
19952;DHT22;10137;49.406;19.484;2022-07-29T15:20:15;22.50;99.90
19952;DHT22;10137;49.406;19.484;2022-07-29T15:22:42;22.50;99.90
19952;DHT22;10137;49.406;19.484;2022-07-29T15:25:10;22.40;99.90
19952;DHT22;10137;49.406;19.484;2022-07-29T15:27:37;22.30;99.90
19952;DHT22;10137;49.406;19.484;2022-07-29T15:30:05;22.30;99.90
19952;DHT22;10137;49.406;19.484;2022-07-29T15:32:34;22.20;99.90
19952;DHT22;10137;49.406;19.484;2022-07-29T15:35:01;22.20;99.90
19952;DHT22;10137;49.406;19.484;2022-07-29T15:37:29;22.20;99.90
19952;DHT22;10137;49.406;19.484;2022-07-29T15:39:56;22.20;99.90